createdAt,value
2023-01-17T00:02:07.201Z,99415.38
2023-01-17T00:04:53.107Z,99417.88
2023-01-17T00:07:40.524Z,99417.88
2023-01-17T00:10:16.867Z,99415.91
2023-01-17T00:13:03.552Z,99418.72
2023-01-17T00:15:31.901Z,99423.94
2023-01-17T00:17:59.573Z,99424.72
2023-01-17T00:20:48.709Z,99421.66
2023-01-17T00:23:40.414Z,99392.69
2023-01-17T00:26:12.969Z,99414.72
2023-01-17T00:28:41.572Z,99403.84
2023-01-17T00:31:11.385Z,99391.22
2023-01-17T00:33:39.113Z,99404.44
2023-01-17T00:36:07.480Z,99401.91
2023-01-17T00:38:37.459Z,99389.38
2023-01-17T00:41:13.479Z,99393.56
2023-01-17T00:43:59.382Z,99393.53
2023-01-17T00:46:45.188Z,99386.19
2023-01-17T00:49:30.754Z,99380.50
2023-01-17T00:52:16.443Z,99388.66
2023-01-17T00:55:02.204Z,99399.00
2023-01-17T00:57:49.130Z,99388.06
2023-01-17T01:00:37.593Z,99397.06
2023-01-17T01:03:30.154Z,99396.16
2023-01-17T01:06:16.095Z,99404.75
2023-01-17T01:09:01.606Z,99393.03
2023-01-17T01:11:47.185Z,99404.31
2023-01-17T01:14:32.890Z,99395.75
2023-01-17T01:17:18.681Z,99392.16
2023-01-17T01:20:04.386Z,99390.13
2023-01-17T01:22:49.968Z,99408.94
2023-01-17T01:25:35.619Z,99386.34
2023-01-17T01:28:26.586Z,99392.75
2023-01-17T01:31:12.223Z,99388.63
2023-01-17T01:33:39.211Z,99409.16
2023-01-17T01:36:09.136Z,99391.84
2023-01-17T01:38:36.443Z,99381.25
2023-01-17T01:41:04.133Z,99376.84
2023-01-17T01:43:54.520Z,99383.53
2023-01-17T01:46:33.251Z,99406.41
2023-01-17T01:49:08.569Z,99383.94
2023-01-17T01:51:41.590Z,99383.75
2023-01-17T01:54:15.665Z,99364.56
2023-01-17T01:56:44.248Z,99372.81
2023-01-17T01:59:15.679Z,99378.59
2023-01-17T02:01:42.913Z,99366.34
2023-01-17T02:04:11.013Z,99383.47
2023-01-17T02:06:42.169Z,99379.28
2023-01-17T02:09:11.895Z,99379.94
2023-01-17T02:11:40.913Z,99375.88
2023-01-17T02:14:09.024Z,99373.50
2023-01-17T02:16:58.094Z,99375.19
2023-01-17T02:19:57.109Z,99398.06
2023-01-17T02:22:26.990Z,99382.88
2023-01-17T02:24:53.940Z,99377.69
2023-01-17T02:27:42.148Z,99366.91
2023-01-17T02:30:24.248Z,99364.56
2023-01-17T02:33:26.390Z,99368.91
2023-01-17T02:36:10.273Z,99359.31
2023-01-17T02:39:12.715Z,99360.50
2023-01-17T02:41:43.816Z,99355.88
2023-01-17T02:44:15.864Z,99355.53
2023-01-17T02:46:49.607Z,99358.53
2023-01-17T02:49:18.830Z,99356.50
2023-01-17T02:52:20.829Z,99346.97
2023-01-17T02:55:18.625Z,99350.53
2023-01-17T02:58:03.909Z,99364.28
2023-01-17T03:00:49.401Z,99353.94
2023-01-17T03:03:23.348Z,99351.03
2023-01-17T03:06:11.704Z,99351.22
2023-01-17T03:08:41.284Z,99349.09
2023-01-17T03:11:12.571Z,99345.50
2023-01-17T03:13:39.882Z,99338.59
2023-01-17T03:16:12.883Z,99339.09
2023-01-17T03:18:39.889Z,99341.50
2023-01-17T03:21:06.853Z,99339.78
2023-01-17T03:23:33.808Z,99340.28
2023-01-17T03:26:00.745Z,99348.28
2023-01-17T03:28:27.839Z,99336.22
2023-01-17T03:30:54.916Z,99332.41
2023-01-17T03:33:21.922Z,99339.81
2023-01-17T03:35:48.944Z,99333.00
2023-01-17T03:38:15.925Z,99335.53
2023-01-17T03:40:42.866Z,99351.53
2023-01-17T03:43:09.917Z,99341.50
2023-01-17T03:45:36.926Z,99332.88
2023-01-17T03:48:04.059Z,99329.19
2023-01-17T03:50:31.021Z,99332.88
2023-01-17T03:52:58.032Z,99339.56
2023-01-17T03:55:24.983Z,99332.41
2023-01-17T03:57:52.045Z,99338.88
2023-01-17T04:00:19.278Z,99330.19
2023-01-17T04:02:46.381Z,99330.53
2023-01-17T04:05:13.451Z,99338.41
2023-01-17T04:07:41.209Z,99351.75
2023-01-17T04:10:08.668Z,99341.03
2023-01-17T04:12:35.770Z,99343.53
2023-01-17T04:15:02.863Z,99344.59
2023-01-17T04:17:31.077Z,99348.66
2023-01-17T04:19:58.144Z,99353.19
2023-01-17T04:22:25.263Z,99349.28
2023-01-17T04:24:52.235Z,99353.94
2023-01-17T04:27:19.269Z,99350.28
2023-01-17T04:29:46.877Z,99354.72
2023-01-17T04:32:14.879Z,99348.53
2023-01-17T04:34:42.155Z,99353.19
2023-01-17T04:37:09.209Z,99349.88
2023-01-17T04:39:36.273Z,99384.25
2023-01-17T04:42:03.246Z,99357.94
2023-01-17T04:44:30.268Z,99364.38
2023-01-17T04:46:57.261Z,99356.19
2023-01-17T04:49:24.308Z,99358.59
2023-01-17T04:51:52.667Z,99370.16
2023-01-17T04:54:19.671Z,99356.56
2023-01-17T04:56:46.715Z,99359.78
2023-01-17T04:59:13.776Z,99362.03
2023-01-17T05:01:40.878Z,99361.34
2023-01-17T05:04:07.950Z,99364.56
2023-01-17T05:06:34.933Z,99365.91
2023-01-17T05:09:03.008Z,99361.84
2023-01-17T05:11:30.020Z,99364.47
2023-01-17T05:13:57.018Z,99352.75
2023-01-17T05:16:24.213Z,99361.00
2023-01-17T05:18:53.041Z,99370.19
2023-01-17T05:21:21.180Z,99374.00
2023-01-17T05:23:48.589Z,99370.66
2023-01-17T05:26:15.633Z,99365.66
2023-01-17T05:28:42.703Z,99355.16
2023-01-17T05:31:09.850Z,99359.06
2023-01-17T05:33:37.071Z,99361.09
2023-01-17T05:36:04.371Z,99376.53
2023-01-17T05:38:31.412Z,99366.25
2023-01-17T05:41:02.329Z,99364.56
2023-01-17T05:43:29.461Z,99365.53
2023-01-17T05:45:56.561Z,99367.34
2023-01-17T05:48:23.682Z,99369.47
2023-01-17T05:50:52.403Z,99363.63
2023-01-17T05:53:19.483Z,99371.75
2023-01-17T05:55:47.833Z,99370.31
2023-01-17T05:58:18.184Z,99376.41
2023-01-17T06:00:45.814Z,99364.72
2023-01-17T06:03:13.276Z,99365.19
2023-01-17T06:05:40.891Z,99368.78
2023-01-17T06:08:08.370Z,99366.97
2023-01-17T06:10:35.338Z,99363.50
2023-01-17T06:13:08.352Z,99380.47
2023-01-17T06:15:37.010Z,99378.44
2023-01-17T06:18:15.646Z,99368.53
2023-01-17T06:20:43.521Z,99372.72
2023-01-17T06:23:13.320Z,99376.41
2023-01-17T06:25:45.668Z,99375.06
2023-01-17T06:28:14.978Z,99373.78
2023-01-17T06:30:42.593Z,99374.25
2023-01-17T06:33:10.511Z,99380.19
2023-01-17T06:35:44.454Z,99372.56
2023-01-17T06:38:11.439Z,99377.38
2023-01-17T06:40:38.475Z,99375.00
2023-01-17T06:43:05.967Z,99372.25
2023-01-17T06:45:35.324Z,99368.78
2023-01-17T06:48:04.273Z,99376.16
2023-01-17T06:50:33.621Z,99369.75
2023-01-17T06:53:07.029Z,99370.44
2023-01-17T06:55:35.267Z,99361.22
2023-01-17T06:58:03.257Z,99377.00
2023-01-17T07:00:31.651Z,99375.47
2023-01-17T07:02:58.653Z,99371.66
2023-01-17T07:05:25.921Z,99369.63
2023-01-17T07:07:53.719Z,99371.88
2023-01-17T07:10:21.310Z,99377.38
2023-01-17T07:12:48.380Z,99368.53
2023-01-17T07:15:15.514Z,99374.06
2023-01-17T07:17:42.520Z,99388.88
2023-01-17T07:20:10.101Z,99379.56
2023-01-17T07:22:37.891Z,99385.50
2023-01-17T07:25:05.582Z,99384.78
2023-01-17T07:27:33.722Z,99385.16
2023-01-17T07:30:01.357Z,99390.41
2023-01-17T07:32:28.763Z,99382.16
2023-01-17T07:34:58.132Z,99384.56
2023-01-17T07:37:26.577Z,99393.06
2023-01-17T07:39:54.673Z,99369.63
2023-01-17T07:42:23.959Z,99371.19
2023-01-17T07:44:51.386Z,99371.63
2023-01-17T07:47:18.313Z,99377.88
2023-01-17T07:49:45.511Z,99380.59
2023-01-17T07:52:12.492Z,99377.63
2023-01-17T07:54:39.417Z,99376.91
2023-01-17T07:57:11.207Z,99378.81
2023-01-17T07:59:38.158Z,99381.03
2023-01-17T08:02:05.289Z,99381.28
2023-01-17T08:04:35.358Z,99392.66
2023-01-17T08:07:02.631Z,99382.84
2023-01-17T08:09:29.839Z,99413.25
2023-01-17T08:11:56.826Z,99391.72
2023-01-17T08:14:23.899Z,99391.13
2023-01-17T08:16:50.944Z,99397.47
2023-01-17T08:19:18.075Z,99396.03
2023-01-17T08:21:45.181Z,99408.38
2023-01-17T08:24:13.957Z,99389.13
2023-01-17T08:26:40.998Z,99391.38
2023-01-17T08:29:09.010Z,99396.50
2023-01-17T08:31:36.778Z,99389.56
2023-01-17T08:34:04.087Z,99390.06
2023-01-17T08:36:31.452Z,99380.56
2023-01-17T08:38:58.705Z,99394.97
2023-01-17T08:41:28.021Z,99396.25
2023-01-17T08:43:55.065Z,99372.00
2023-01-17T08:46:22.617Z,99378.56
2023-01-17T08:48:54.301Z,99375.06
2023-01-17T08:51:21.786Z,99391.22
2023-01-17T08:53:48.801Z,99387.16
2023-01-17T08:56:15.947Z,99376.16
2023-01-17T08:58:43.028Z,99391.47
2023-01-17T09:01:10.196Z,99371.84
2023-01-17T09:03:39.479Z,99386.16
2023-01-17T09:06:13.917Z,99377.81
2023-01-17T09:08:41.303Z,99371.44
2023-01-17T09:11:13.079Z,99378.28
2023-01-17T09:13:40.556Z,99362.88
2023-01-17T09:16:08.381Z,99373.50
2023-01-17T09:18:36.378Z,99367.75
2023-01-17T09:21:14.826Z,99378.84
2023-01-17T09:23:42.383Z,99365.41
2023-01-17T09:26:34.564Z,99374.16
2023-01-17T09:29:01.608Z,99363.59
2023-01-17T09:31:29.047Z,99357.50
2023-01-17T09:33:57.916Z,99363.34
2023-01-17T09:36:28.942Z,99358.19
2023-01-17T09:38:57.875Z,99364.50
2023-01-17T09:41:30.134Z,99375.03
2023-01-17T09:44:01.879Z,99368.19
2023-01-17T09:46:32.614Z,99367.53
2023-01-17T09:49:41.878Z,99367.59
2023-01-17T09:52:13.685Z,99367.59
2023-01-17T09:54:43.361Z,99377.63
2023-01-17T09:57:47.008Z,99376.44
2023-01-17T10:00:35.257Z,99373.19
2023-01-17T10:03:28.363Z,99381.22
2023-01-17T10:06:28.695Z,99374.53
2023-01-17T10:09:13.658Z,99376.00
2023-01-17T10:12:07.440Z,99375.88
2023-01-17T10:14:34.482Z,99365.34
2023-01-17T10:17:07.064Z,99376.00
2023-01-17T10:19:55.167Z,99386.31
2023-01-17T10:22:37.404Z,99381.63
2023-01-17T10:25:36.442Z,99379.44
2023-01-17T10:28:12.408Z,99378.56
2023-01-17T10:30:49.038Z,99370.88
2023-01-17T10:33:21.561Z,99367.22
2023-01-17T10:35:57.269Z,99363.75
2023-01-17T10:38:30.277Z,99373.53
2023-01-17T10:41:03.363Z,99364.91
2023-01-17T10:43:37.643Z,99352.44
2023-01-17T10:46:05.311Z,99362.72
2023-01-17T10:48:41.823Z,99362.72
2023-01-17T10:51:11.117Z,99361.25
2023-01-17T10:53:56.416Z,99361.19
2023-01-17T10:56:28.192Z,99364.09
2023-01-17T10:59:18.720Z,99376.81
2023-01-17T11:01:46.201Z,99353.47
2023-01-17T11:04:25.077Z,99377.97
2023-01-17T11:07:12.643Z,99362.47
2023-01-17T11:09:42.587Z,99384.59
2023-01-17T11:12:44.375Z,99358.31
2023-01-17T11:15:11.295Z,99365.13
2023-01-17T11:17:53.555Z,99361.50
2023-01-17T11:20:32.907Z,99355.16
2023-01-17T11:23:14.846Z,99368.06
2023-01-17T11:25:58.174Z,99353.53
2023-01-17T11:28:30.830Z,99349.56
2023-01-17T11:31:26.087Z,99372.31
2023-01-17T11:34:13.409Z,99350.50
2023-01-17T11:36:40.658Z,99348.78
2023-01-17T11:39:27.712Z,99355.25
2023-01-17T11:41:54.916Z,99348.56
2023-01-17T11:44:31.829Z,99350.13
2023-01-17T11:47:13.802Z,99362.91
2023-01-17T11:49:42.608Z,99353.53
2023-01-17T11:52:11.660Z,99352.28
2023-01-17T11:54:40.599Z,99352.69
2023-01-17T11:57:28.305Z,99357.72
2023-01-17T12:00:24.976Z,99354.50
2023-01-17T12:03:11.001Z,99358.94
2023-01-17T12:05:53.760Z,99361.31
2023-01-17T12:08:44.603Z,99362.03
2023-01-17T12:11:23.576Z,99369.16
2023-01-17T12:14:02.343Z,99355.44
2023-01-17T12:16:35.316Z,99372.38
2023-01-17T12:19:05.286Z,99354.47
2023-01-17T12:21:50.929Z,99365.69
2023-01-17T12:24:41.686Z,99356.22
2023-01-17T12:27:20.837Z,99364.66
2023-01-17T12:30:22.697Z,99351.59
2023-01-17T12:33:06.907Z,99349.53
2023-01-17T12:35:46.252Z,99363.09
2023-01-17T12:38:31.733Z,99357.38
2023-01-17T12:41:24.434Z,99355.16
2023-01-17T12:43:56.610Z,99349.38
2023-01-17T12:46:33.735Z,99350.56
2023-01-17T12:49:43.722Z,99337.38
2023-01-17T12:52:52.509Z,99351.47
2023-01-17T12:55:55.574Z,99339.81
2023-01-17T12:58:25.981Z,99347.41
2023-01-17T13:01:28.534Z,99353.84
2023-01-17T13:04:21.376Z,99349.91
2023-01-17T13:07:03.372Z,99345.91
2023-01-17T13:09:39.747Z,99335.63
2023-01-17T13:12:14.224Z,99337.72
2023-01-17T13:14:41.447Z,99337.47
2023-01-17T13:17:57.777Z,99337.88
2023-01-17T13:20:33.473Z,99341.75
2023-01-17T13:23:33.777Z,99344.41
2023-01-17T13:26:03.409Z,99356.78
2023-01-17T13:28:47.130Z,99339.97
2023-01-17T13:31:48.391Z,99348.03
2023-01-17T13:34:45.978Z,99344.69
2023-01-17T13:37:42.458Z,99339.56
2023-01-17T13:40:29.682Z,99326.94
2023-01-17T13:43:00.893Z,99345.25
2023-01-17T13:45:31.236Z,99335.41
2023-01-17T13:48:14.778Z,99334.84
2023-01-17T13:50:41.855Z,99332.75
2023-01-17T13:53:39.564Z,99334.69
2023-01-17T13:56:18.887Z,99329.97
2023-01-17T13:58:50.390Z,99329.69
2023-01-17T14:01:24.656Z,99333.56
2023-01-17T14:03:54.454Z,99324.53
2023-01-17T14:06:40.801Z,99334.91
2023-01-17T14:09:17.064Z,99318.00
2023-01-17T14:11:58.684Z,99320.22
2023-01-17T14:14:56.765Z,99323.81
2023-01-17T14:17:25.706Z,99321.06
2023-01-17T14:19:53.741Z,99322.56
2023-01-17T14:22:20.848Z,99327.19
2023-01-17T14:25:12.297Z,99324.94
2023-01-17T14:27:42.626Z,99342.47
2023-01-17T14:30:27.630Z,99324.00
2023-01-17T14:33:08.881Z,99323.31
2023-01-17T14:35:37.637Z,99323.44
2023-01-17T14:38:18.672Z,99319.56
2023-01-17T14:40:54.111Z,99323.31
2023-01-17T14:43:24.074Z,99324.97
2023-01-17T14:46:05.757Z,99323.88
2023-01-17T14:48:40.520Z,99332.19
2023-01-17T14:51:20.428Z,99319.09
2023-01-17T14:53:59.427Z,99324.53
2023-01-17T14:56:28.876Z,99326.75
2023-01-17T14:59:17.395Z,99314.66
2023-01-17T15:02:06.163Z,99312.28
2023-01-17T15:04:39.899Z,99326.47
2023-01-17T15:07:18.992Z,99318.78
2023-01-17T15:09:47.386Z,99311.53
2023-01-17T15:12:14.946Z,99313.50
2023-01-17T15:14:45.998Z,99307.25
2023-01-17T15:17:24.684Z,99303.50
2023-01-17T15:20:06.626Z,99301.00
2023-01-17T15:22:36.849Z,99301.69
2023-01-17T15:25:05.331Z,99290.16
2023-01-17T15:27:32.908Z,99297.66
2023-01-17T15:30:02.894Z,99301.56
2023-01-17T15:32:31.937Z,99305.47
2023-01-17T15:35:02.645Z,99305.88
2023-01-17T15:37:34.838Z,99301.16
2023-01-17T15:40:20.355Z,99319.25
2023-01-17T15:43:01.200Z,99322.00
2023-01-17T15:45:31.809Z,99321.03
2023-01-17T15:48:38.704Z,99318.66
2023-01-17T15:51:06.009Z,99323.50
2023-01-17T15:53:36.888Z,99322.97
2023-01-17T15:56:22.303Z,99314.53
2023-01-17T15:58:50.536Z,99311.00
2023-01-17T16:01:25.775Z,99306.44
2023-01-17T16:03:56.404Z,99321.25
2023-01-17T16:06:45.987Z,99310.16
2023-01-17T16:09:25.086Z,99304.06
2023-01-17T16:11:52.557Z,99305.72
2023-01-17T16:14:20.109Z,99306.00
2023-01-17T16:16:54.738Z,99317.53
2023-01-17T16:19:25.330Z,99316.41
2023-01-17T16:21:52.538Z,99327.88
2023-01-17T16:24:20.190Z,99303.22
2023-01-17T16:26:51.850Z,99305.03
2023-01-17T16:29:19.275Z,99305.13
2023-01-17T16:31:46.698Z,99299.13
2023-01-17T16:34:14.218Z,99312.56
2023-01-17T16:36:41.887Z,99308.25
2023-01-17T16:39:14.619Z,99337.97
2023-01-17T16:41:41.859Z,99319.63
2023-01-17T16:44:10.183Z,99349.44
2023-01-17T16:46:38.747Z,99321.31
2023-01-17T16:49:06.583Z,99343.50
2023-01-17T16:51:34.804Z,99320.97
2023-01-17T16:54:02.225Z,99323.34
2023-01-17T16:56:29.942Z,99329.72
2023-01-17T16:58:57.687Z,99325.81
2023-01-17T17:01:25.508Z,99315.31
2023-01-17T17:03:55.682Z,99326.13
2023-01-17T17:06:23.287Z,99338.28
2023-01-17T17:08:50.736Z,99292.34
2023-01-17T17:11:21.160Z,99315.03
2023-01-17T17:13:50.204Z,99296.97
2023-01-17T17:16:26.609Z,99313.16
2023-01-17T17:18:57.088Z,99304.22
2023-01-17T17:21:26.171Z,99294.75
2023-01-17T17:23:58.385Z,99308.59
2023-01-17T17:26:27.603Z,99309.69
2023-01-17T17:28:55.033Z,99309.09
2023-01-17T17:31:25.481Z,99311.16
2023-01-17T17:33:53.035Z,99295.66
2023-01-17T17:36:20.070Z,99322.81
2023-01-17T17:38:53.977Z,99299.66
2023-01-17T17:41:27.747Z,99311.84
2023-01-17T17:43:55.970Z,99317.44
2023-01-17T17:46:25.343Z,99316.19
2023-01-17T17:48:52.591Z,99317.63
2023-01-17T17:51:40.383Z,99339.53
2023-01-17T17:54:10.356Z,99323.63
2023-01-17T17:56:39.603Z,99312.06
2023-01-17T17:59:09.272Z,99316.41
2023-01-17T18:01:41.059Z,99310.56
2023-01-17T18:04:08.912Z,99317.47
2023-01-17T18:06:36.408Z,99315.09
2023-01-17T18:09:04.514Z,99319.78
2023-01-17T18:11:32.117Z,99307.13
2023-01-17T18:14:01.787Z,99312.00
2023-01-17T18:16:35.652Z,99324.91
2023-01-17T18:19:04.238Z,99346.78
2023-01-17T18:21:33.971Z,99315.03
2023-01-17T18:24:03.803Z,99339.03
2023-01-17T18:26:32.275Z,99327.31
2023-01-17T18:29:00.380Z,99317.16
2023-01-17T18:31:29.450Z,99318.88
2023-01-17T18:33:59.237Z,99318.06
2023-01-17T18:36:29.018Z,99341.03
2023-01-17T18:38:56.923Z,99339.38
2023-01-17T18:41:27.064Z,99332.66
2023-01-17T18:43:56.201Z,99348.47
2023-01-17T18:46:26.065Z,99346.78
2023-01-17T18:48:57.074Z,99336.25
2023-01-17T18:51:24.875Z,99356.63
2023-01-17T18:53:55.148Z,99319.66
2023-01-17T18:56:24.050Z,99323.00
2023-01-17T18:58:51.392Z,99317.84
2023-01-17T19:01:24.872Z,99317.22
2023-01-17T19:03:54.834Z,99305.00
2023-01-17T19:06:25.745Z,99319.38
2023-01-17T19:08:53.205Z,99307.72
2023-01-17T19:11:22.676Z,99303.72
2023-01-17T19:13:50.885Z,99291.63
2023-01-17T19:16:28.228Z,99299.59
2023-01-17T19:18:58.177Z,99293.78
2023-01-17T19:21:27.709Z,99314.53
2023-01-17T19:23:56.910Z,99310.88
2023-01-17T19:26:27.644Z,99302.03
2023-01-17T19:28:56.919Z,99310.41
2023-01-17T19:31:26.811Z,99338.44
2023-01-17T19:33:57.586Z,99311.75
2023-01-17T19:36:28.384Z,99318.19
2023-01-17T19:39:04.506Z,99330.97
2023-01-17T19:41:34.531Z,99316.19
2023-01-17T19:44:04.295Z,99315.88
2023-01-17T19:46:32.783Z,99314.94
2023-01-17T19:49:00.704Z,99321.56
2023-01-17T19:51:28.279Z,99339.72
2023-01-17T19:53:56.208Z,99326.50
2023-01-17T19:56:25.360Z,99329.38
2023-01-17T19:58:52.513Z,99325.78
2023-01-17T20:01:19.701Z,99317.75
2023-01-17T20:03:47.339Z,99321.34
2023-01-17T20:06:17.725Z,99336.25
2023-01-17T20:08:45.396Z,99348.47
2023-01-17T20:11:21.543Z,99328.41
2023-01-17T20:13:51.601Z,99316.63
2023-01-17T20:16:19.559Z,99317.34
2023-01-17T20:18:46.695Z,99338.09
2023-01-17T20:21:17.452Z,99325.25
2023-01-17T20:23:47.125Z,99316.84
2023-01-17T20:26:15.855Z,99331.81
2023-01-17T20:28:46.189Z,99375.28
2023-01-17T20:31:16.154Z,99329.47
2023-01-17T20:33:44.787Z,99330.06
2023-01-17T20:36:15.055Z,99364.03
2023-01-17T20:38:46.400Z,99344.44
2023-01-17T20:41:24.521Z,99346.81
2023-01-17T20:43:57.058Z,99335.97
2023-01-17T20:46:26.913Z,99330.13
2023-01-17T20:48:56.063Z,99329.78
2023-01-17T20:51:25.504Z,99339.94
2023-01-17T20:53:56.097Z,99336.63
2023-01-17T20:56:24.004Z,99336.75
2023-01-17T20:58:52.466Z,99328.50
2023-01-17T21:01:21.359Z,99337.00
2023-01-17T21:03:51.743Z,99362.03
2023-01-17T21:06:20.913Z,99345.78
2023-01-17T21:08:48.539Z,99355.72
2023-01-17T21:11:20.941Z,99352.34
2023-01-17T21:13:51.592Z,99343.69
2023-01-17T21:16:21.361Z,99339.09
2023-01-17T21:18:50.116Z,99354.81
2023-01-17T21:21:24.470Z,99340.69
2023-01-17T21:23:53.672Z,99344.28
2023-01-17T21:26:22.541Z,99357.91
2023-01-17T21:28:50.983Z,99339.50
2023-01-17T21:31:26.518Z,99355.56
2023-01-17T21:33:59.248Z,99370.91
2023-01-17T21:36:29.502Z,99345.78
2023-01-17T21:38:58.906Z,99355.00
2023-01-17T21:41:29.308Z,99347.72
2023-01-17T21:43:58.842Z,99351.53
2023-01-17T21:46:27.144Z,99362.63
2023-01-17T21:48:54.210Z,99338.13
2023-01-17T21:51:21.954Z,99354.75
2023-01-17T21:53:49.052Z,99348.41
2023-01-17T21:56:35.107Z,99389.81
2023-01-17T21:59:02.276Z,99348.22
2023-01-17T22:01:32.652Z,99342.56
2023-01-17T22:04:02.846Z,99340.38
2023-01-17T22:06:32.918Z,99338.72
2023-01-17T22:09:00.240Z,99352.84
2023-01-17T22:11:30.097Z,99318.53
2023-01-17T22:13:59.250Z,99330.63
2023-01-17T22:16:26.574Z,99353.22
2023-01-17T22:18:53.744Z,99324.53
2023-01-17T22:21:23.300Z,99323.09
2023-01-17T22:23:52.277Z,99327.13
2023-01-17T22:26:21.416Z,99321.28
2023-01-17T22:28:48.435Z,99302.38
2023-01-17T22:31:24.754Z,99291.03
2023-01-17T22:34:03.625Z,99317.22
2023-01-17T22:36:34.707Z,99327.66
2023-01-17T22:39:02.274Z,99309.94
2023-01-17T22:41:31.324Z,99310.31
2023-01-17T22:44:02.140Z,99291.78
2023-01-17T22:46:31.669Z,99297.50
2023-01-17T22:48:59.368Z,99291.78
2023-01-17T22:51:28.459Z,99281.97
2023-01-17T22:53:57.831Z,99310.91
2023-01-17T22:56:32.981Z,99296.19
2023-01-17T22:59:01.146Z,99303.75
2023-01-17T23:01:30.925Z,99320.25
2023-01-17T23:03:59.873Z,99284.34
2023-01-17T23:06:38.711Z,99267.16
2023-01-17T23:09:11.649Z,99282.94
2023-01-17T23:11:47.497Z,99291.56
2023-01-17T23:14:14.448Z,99290.69
2023-01-17T23:17:08.500Z,99301.47
2023-01-17T23:19:42.601Z,99288.78
2023-01-17T23:22:15.952Z,99311.50
2023-01-17T23:25:01.087Z,99297.25
2023-01-17T23:27:58.207Z,99315.09
2023-01-17T23:30:29.847Z,99305.31
2023-01-17T23:32:59.926Z,99310.66
2023-01-17T23:35:30.021Z,99305.88
2023-01-17T23:38:15.998Z,99305.16
2023-01-17T23:40:43.929Z,99305.25
2023-01-17T23:43:23.872Z,99320.28
2023-01-17T23:45:52.614Z,99308.34
2023-01-17T23:48:20.754Z,99310.41
2023-01-17T23:50:48.706Z,99290.53
2023-01-17T23:53:23.768Z,99313.03
2023-01-17T23:55:56.899Z,99315.19
2023-01-17T23:58:26.897Z,99297.94
